Time;durP1;ratioP1;P1;durP2;ratioP2;P2;SDS_P1;SDS_P2;PMS_P1;PMS_P2;Temp;Humidity;BMP_temperature;BMP_pressure;BME280_temperature;BME280_humidity;BME280_pressure;Samples;Min_cycle;Max_cycle;Signal;HPM_P1;HPM_P2
2023/03/28 00:01:38;;;;;;;3.78;1.30;;;2.00;99.90;;;;;;5067901;28;20052;-84
2023/03/28 00:04:04;;;;;;;3.88;1.00;;;2.00;99.90;;;;;;5063787;28;20044;-84
2023/03/28 00:06:30;;;;;;;3.17;1.08;;;2.10;99.90;;;;;;5068489;28;20115;-84
2023/03/28 00:08:56;;;;;;;4.53;1.10;;;2.00;99.90;;;;;;5069368;28;20024;-83
2023/03/28 00:11:22;;;;;;;4.32;1.10;;;2.00;99.90;;;;;;5083036;28;20481;-84
2023/03/28 00:13:59;;;;;;;3.45;1.35;;;2.00;99.90;;;;;;5069067;28;20020;-84
2023/03/28 00:16:44;;;;;;;2.42;1.00;;;2.00;99.90;;;;;;5068151;28;20126;-83
2023/03/28 00:19:17;;;;;;;4.95;1.02;;;1.90;99.90;;;;;;5063952;28;20037;-85
2023/03/28 00:21:45;;;;;;;3.30;1.00;;;1.90;99.90;;;;;;5066085;28;20028;-84
2023/03/28 00:24:13;;;;;;;2.80;0.88;;;1.90;99.90;;;;;;5062194;28;20110;-82
2023/03/28 00:26:40;;;;;;;3.90;1.40;;;1.80;99.90;;;;;;5067323;28;20052;-84
2023/03/28 00:29:08;;;;;;;4.43;1.67;;;1.80;99.90;;;;;;5064725;28;20039;-84
2023/03/28 00:31:37;;;;;;;3.50;1.50;;;1.80;99.90;;;;;;5066724;28;20103;-84
2023/03/28 00:34:03;;;;;;;3.42;1.00;;;1.70;99.90;;;;;;5062890;28;20032;-83
2023/03/28 00:36:31;;;;;;;2.78;0.98;;;1.70;99.90;;;;;;5065199;28;20055;-84
2023/03/28 00:39:05;;;;;;;2.58;1.10;;;1.70;99.90;;;;;;5064636;28;20024;-84
2023/03/28 00:41:33;;;;;;;3.38;1.50;;;1.70;99.90;;;;;;5064812;28;20418;-83
2023/03/28 00:44:00;;;;;;;2.78;0.98;;;1.70;99.90;;;;;;5070950;28;20436;-84
2023/03/28 00:46:25;;;;;;;3.25;1.08;;;1.70;99.90;;;;;;5069570;28;20020;-84
2023/03/28 00:48:55;;;;;;;3.00;1.10;;;1.70;99.90;;;;;;5063553;28;20036;-84
2023/03/28 00:51:25;;;;;;;4.50;1.20;;;1.70;99.90;;;;;;5065040;28;20119;-85
2023/03/28 00:53:53;;;;;;;2.67;1.20;;;1.70;99.90;;;;;;5068337;28;20027;-84
2023/03/28 00:56:22;;;;;;;4.05;1.30;;;1.60;99.90;;;;;;5069381;28;20040;-85
2023/03/28 00:58:49;;;;;;;4.32;1.55;;;1.60;99.90;;;;;;5067582;28;20370;-85
2023/03/28 01:01:18;;;;;;;2.75;1.13;;;1.60;99.90;;;;;;5062405;28;20068;-84
2023/03/28 01:03:51;;;;;;;4.45;1.10;;;1.60;99.90;;;;;;5061954;28;20548;-84
2023/03/28 01:06:20;;;;;;;2.30;1.10;;;1.60;99.90;;;;;;5059373;28;20036;-84
2023/03/28 01:08:47;;;;;;;3.42;1.23;;;1.50;99.90;;;;;;5065124;28;20032;-85
2023/03/28 01:11:14;;;;;;;3.83;1.10;;;1.50;99.90;;;;;;5063316;28;20029;-84
2023/03/28 01:13:43;;;;;;;4.03;0.88;;;1.50;99.90;;;;;;5063154;28;20055;-87
2023/03/28 01:16:12;;;;;;;4.40;1.05;;;1.50;99.90;;;;;;5071880;28;20506;-87
2023/03/28 01:18:40;;;;;;;2.13;0.90;;;1.50;99.90;;;;;;5071040;28;20025;-90
2023/03/28 01:21:08;;;;;;;2.63;1.00;;;1.50;99.90;;;;;;5074549;28;20082;-88
2023/03/28 01:24:03;;;;;;;6.15;1.10;;;1.50;99.90;;;;;;5075212;28;20569;-89
2023/03/28 01:26:44;;;;;;;2.67;0.98;;;1.40;99.90;;;;;;5072122;28;20045;-90
2023/03/28 01:29:15;;;;;;;3.58;1.20;;;1.40;99.90;;;;;;5067784;28;20044;-91
2023/03/28 01:32:18;;;;;;;3.92;1.05;;;1.40;99.90;;;;;;5088063;28;20040;-89
2023/03/28 01:35:02;;;;;;;4.57;1.10;;;1.30;99.90;;;;;;5078564;28;20028;-87
2023/03/28 01:37:41;;;;;;;3.25;0.98;;;1.30;99.90;;;;;;5066812;28;20033;-88
2023/03/28 01:40:30;;;;;;;2.88;1.05;;;1.30;99.90;;;;;;5064200;28;20063;-89
2023/03/28 01:43:10;;;;;;;2.83;0.98;;;1.20;99.90;;;;;;5076135;28;20028;-88
2023/03/28 01:45:59;;;;;;;2.42;0.90;;;1.20;99.90;;;;;;5064942;28;20075;-88
2023/03/28 01:48:50;;;;;;;1.75;0.90;;;1.20;99.90;;;;;;5065328;28;20437;-88
2023/03/28 01:51:45;;;;;;;4.28;1.50;;;1.20;99.90;;;;;;5069130;28;20119;-89
2023/03/28 01:54:11;;;;;;;6.88;1.30;;;1.20;99.90;;;;;;5060076;28;20085;-87
2023/03/28 01:57:20;;;;;;;2.42;0.90;;;1.20;99.90;;;;;;5081646;28;20033;-87
2023/03/28 02:00:03;;;;;;;2.40;1.10;;;1.20;99.90;;;;;;5039644;28;20036;-86
2023/03/28 02:02:50;;;;;;;3.10;0.90;;;1.20;99.90;;;;;;5073319;28;20021;-86
2023/03/28 02:05:21;;;;;;;3.28;1.77;;;1.20;99.90;;;;;;5082981;28;20494;-89
2023/03/28 02:07:51;;;;;;;3.78;1.02;;;1.10;99.90;;;;;;5064656;28;20021;-90
2023/03/28 02:10:22;;;;;;;2.08;1.00;;;1.10;99.90;;;;;;5070052;28;20378;-91
2023/03/28 02:12:53;;;;;;;3.60;0.88;;;1.10;99.90;;;;;;5066645;28;20111;-89
2023/03/28 02:15:22;;;;;;;3.15;1.45;;;1.00;99.90;;;;;;5059879;28;20029;-88
2023/03/28 02:17:53;;;;;;;4.22;1.17;;;1.00;99.90;;;;;;5081791;28;20036;-87
2023/03/28 02:20:23;;;;;;;4.32;1.40;;;1.00;99.90;;;;;;5067260;28;20025;-88
2023/03/28 02:22:58;;;;;;;3.85;1.23;;;1.00;99.90;;;;;;5066486;28;20017;-90
2023/03/28 02:25:23;;;;;;;3.40;1.20;;;1.00;99.90;;;;;;5064097;28;20028;-88
2023/03/28 02:27:54;;;;;;;3.47;1.10;;;1.00;99.90;;;;;;5068809;28;20039;-88
2023/03/28 02:30:20;;;;;;;4.18;1.00;;;1.00;99.90;;;;;;5084545;28;20095;-85
2023/03/28 02:32:49;;;;;;;4.25;0.90;;;1.00;99.90;;;;;;5065818;28;20474;-86
2023/03/28 02:35:23;;;;;;;3.50;1.08;;;0.90;99.90;;;;;;5058452;28;20036;-87
2023/03/28 02:38:21;;;;;;;2.78;1.10;;;0.90;99.90;;;;;;5063818;28;20032;-88
2023/03/28 02:40:59;;;;;;;2.20;1.00;;;0.90;99.90;;;;;;5057428;28;20040;-85
2023/03/28 02:44:09;;;;;;;3.83;1.02;;;0.90;99.90;;;;;;5061285;28;20350;-84
2023/03/28 02:46:54;;;;;;;3.13;0.90;;;0.90;99.90;;;;;;5028365;28;20037;-90
2023/03/28 02:49:47;;;;;;;2.08;1.10;;;0.90;99.90;;;;;;5065311;28;20029;-86
2023/03/28 02:52:49;;;;;;;5.90;1.77;;;0.80;99.90;;;;;;5061920;28;20032;-84
2023/03/28 02:55:20;;;;;;;3.10;1.00;;;0.80;99.90;;;;;;5063485;28;20301;-83
2023/03/28 02:58:03;;;;;;;3.47;1.20;;;0.80;99.90;;;;;;5059573;28;20016;-83
2023/03/28 03:00:29;;;;;;;3.97;1.17;;;0.70;99.90;;;;;;5063171;28;20037;-84
2023/03/28 03:02:56;;;;;;;3.00;1.13;;;0.70;99.90;;;;;;5055641;28;20040;-84
2023/03/28 03:05:21;;;;;;;3.65;1.20;;;0.70;99.90;;;;;;5063094;28;20024;-84
2023/03/28 03:07:48;;;;;;;4.18;1.38;;;0.70;99.90;;;;;;5065040;28;20459;-84
2023/03/28 03:10:15;;;;;;;2.72;1.15;;;0.60;99.90;;;;;;5062779;28;20033;-84
2023/03/28 03:12:42;;;;;;;3.80;1.45;;;0.60;99.90;;;;;;5067784;28;20044;-84
2023/03/28 03:15:09;;;;;;;2.75;1.17;;;0.50;99.90;;;;;;5061318;28;20033;-84
2023/03/28 03:17:35;;;;;;;4.28;1.60;;;0.50;99.90;;;;;;5068852;28;20028;-84
2023/03/28 03:20:05;;;;;;;4.80;2.05;;;0.50;99.90;;;;;;5066290;28;20394;-84
2023/03/28 03:22:32;;;;;;;4.85;1.50;;;0.50;99.90;;;;;;5068690;28;20488;-84
2023/03/28 03:25:03;;;;;;;2.10;1.10;;;0.50;99.90;;;;;;5066633;28;20025;-83
2023/03/28 03:27:30;;;;;;;4.22;1.50;;;0.40;99.90;;;;;;5065440;28;20492;-84
2023/03/28 03:29:55;;;;;;;3.13;1.42;;;0.40;99.90;;;;;;5060761;28;20119;-83
2023/03/28 03:32:21;;;;;;;6.32;2.17;;;0.40;99.90;;;;;;5056888;28;20075;-84
2023/03/28 03:34:47;;;;;;;2.72;1.10;;;0.40;99.90;;;;;;5058092;28;20029;-84
2023/03/28 03:37:13;;;;;;;2.55;1.17;;;0.40;99.90;;;;;;5068192;28;20031;-84
2023/03/28 03:39:38;;;;;;;3.17;1.10;;;0.40;99.90;;;;;;5080405;28;20043;-83
2023/03/28 03:42:04;;;;;;;4.38;1.35;;;0.40;99.90;;;;;;5084374;28;20101;-84
2023/03/28 03:44:30;;;;;;;2.47;1.50;;;0.40;99.90;;;;;;5067282;28;20040;-84
2023/03/28 03:46:56;;;;;;;4.00;1.27;;;0.40;99.90;;;;;;5063450;28;20024;-84
2023/03/28 03:49:22;;;;;;;2.80;1.08;;;0.40;99.90;;;;;;5066196;28;20032;-83
2023/03/28 03:51:48;;;;;;;4.22;1.23;;;0.40;99.90;;;;;;5064724;28;20162;-84
2023/03/28 03:54:14;;;;;;;2.42;1.25;;;0.40;99.90;;;;;;5065833;28;20114;-84
2023/03/28 03:56:39;;;;;;;4.30;1.27;;;0.30;99.90;;;;;;5068713;28;20095;-85
2023/03/28 03:59:05;;;;;;;4.40;1.55;;;0.30;99.90;;;;;;5062520;28;20023;-85
2023/03/28 04:01:31;;;;;;;3.22;1.25;;;0.30;99.90;;;;;;5082670;28;20021;-84
2023/03/28 04:03:56;;;;;;;4.03;1.45;;;0.30;99.90;;;;;;5067950;28;20052;-84
2023/03/28 04:06:23;;;;;;;4.93;1.40;;;0.30;99.90;;;;;;5064499;28;20024;-84
2023/03/28 04:08:50;;;;;;;5.45;1.70;;;0.30;99.90;;;;;;5068097;28;20106;-84
2023/03/28 04:11:16;;;;;;;4.45;1.67;;;0.20;99.90;;;;;;5066496;28;20032;-84
2023/03/28 04:13:41;;;;;;;3.47;1.10;;;0.20;99.90;;;;;;5063731;28;20029;-86
2023/03/28 04:16:07;;;;;;;2.90;1.05;;;0.20;99.90;;;;;;5067138;28;20029;-83
2023/03/28 04:18:34;;;;;;;3.00;1.30;;;0.20;99.90;;;;;;5080784;28;20115;-83
2023/03/28 04:21:01;;;;;;;4.68;1.60;;;0.20;99.90;;;;;;5081739;28;20033;-84
2023/03/28 04:23:27;;;;;;;2.55;1.15;;;0.20;99.90;;;;;;5062877;28;20028;-83
2023/03/28 04:25:57;;;;;;;2.95;1.30;;;0.10;99.90;;;;;;5065513;28;20016;-83
2023/03/28 04:28:24;;;;;;;2.38;1.10;;;0.10;99.90;;;;;;5058175;28;20059;-84
2023/03/28 04:30:56;;;;;;;3.40;1.10;;;0.10;99.90;;;;;;5059882;28;20074;-83
2023/03/28 04:33:29;;;;;;;3.38;1.33;;;0.10;99.90;;;;;;5056748;28;20012;-84
2023/03/28 04:35:59;;;;;;;3.22;1.05;;;0.10;99.90;;;;;;5080879;28;20028;-84
2023/03/28 04:38:25;;;;;;;2.88;1.30;;;0.10;99.90;;;;;;5064275;28;20473;-84
2023/03/28 04:40:56;;;;;;;3.85;1.30;;;0.00;99.90;;;;;;5058902;28;20758;-82
2023/03/28 04:43:23;;;;;;;4.18;1.42;;;0.00;99.90;;;;;;5064525;28;20923;-82
2023/03/28 04:45:48;;;;;;;5.78;1.42;;;0.00;99.90;;;;;;5064790;28;20115;-84
2023/03/28 04:48:14;;;;;;;2.38;1.13;;;0.00;99.90;;;;;;5063978;28;20112;-84
2023/03/28 04:50:39;;;;;;;3.55;1.33;;;0.00;99.90;;;;;;5081276;28;20043;-84
2023/03/28 04:53:05;;;;;;;3.28;1.58;;;0.00;99.90;;;;;;5064916;28;20016;-85
2023/03/28 04:55:30;;;;;;;4.07;1.40;;;-0.10;99.90;;;;;;5062981;28;22272;-83
2023/03/28 04:57:57;;;;;;;3.45;1.17;;;-0.10;99.90;;;;;;5066711;28;20426;-83
2023/03/28 05:00:24;;;;;;;2.70;1.05;;;-0.10;99.90;;;;;;5064942;28;20139;-84
2023/03/28 05:02:56;;;;;;;4.00;1.55;;;-0.10;99.90;;;;;;5063892;28;20029;-84
2023/03/28 05:05:21;;;;;;;3.42;1.70;;;-0.20;99.90;;;;;;5064496;28;20484;-84
2023/03/28 05:07:47;;;;;;;6.30;1.70;;;-0.20;99.90;;;;;;5063326;28;20064;-84
2023/03/28 05:10:13;;;;;;;3.50;1.67;;;-0.20;99.90;;;;;;5063167;28;20520;-84
2023/03/28 05:12:38;;;;;;;2.20;1.48;;;-0.20;99.90;;;;;;5065910;28;20058;-84
2023/03/28 05:15:05;;;;;;;4.35;1.38;;;-0.20;99.90;;;;;;5063025;28;20032;-83
2023/03/28 05:17:31;;;;;;;3.13;1.40;;;-0.20;99.90;;;;;;5064116;28;20040;-83
2023/03/28 05:19:56;;;;;;;4.25;1.67;;;-0.20;99.90;;;;;;5080472;28;20065;-84
2023/03/28 05:22:22;;;;;;;3.88;1.70;;;-0.20;99.90;;;;;;5069347;28;20104;-84
2023/03/28 05:24:47;;;;;;;4.72;1.50;;;-0.20;99.90;;;;;;5064330;28;20060;-84
2023/03/28 05:27:13;;;;;;;3.90;1.80;;;-0.20;99.90;;;;;;5062875;28;20393;-84
2023/03/28 05:29:39;;;;;;;4.63;2.00;;;-0.20;99.90;;;;;;5039880;28;20075;-83
2023/03/28 05:32:04;;;;;;;2.65;1.60;;;-0.20;99.90;;;;;;5061037;28;20020;-85
2023/03/28 05:34:30;;;;;;;3.40;1.60;;;-0.20;99.90;;;;;;5061223;28;20033;-83
2023/03/28 05:36:56;;;;;;;2.85;1.40;;;-0.20;99.90;;;;;;5062565;28;20020;-83
2023/03/28 05:39:22;;;;;;;5.05;2.13;;;-0.20;99.90;;;;;;5061325;28;20063;-84
2023/03/28 05:41:48;;;;;;;3.35;1.52;;;-0.10;99.90;;;;;;5079817;28;20017;-84
2023/03/28 05:44:14;;;;;;;3.58;1.70;;;-0.20;99.90;;;;;;5063470;28;20086;-84
2023/03/28 05:46:39;;;;;;;3.70;1.80;;;-0.10;99.90;;;;;;5061300;28;20039;-84
2023/03/28 05:49:05;;;;;;;4.55;1.95;;;-0.10;99.90;;;;;;5063179;28;20070;-83
2023/03/28 05:51:30;;;;;;;5.30;2.65;;;-0.10;99.90;;;;;;5060893;28;20115;-84
2023/03/28 05:53:56;;;;;;;5.20;1.85;;;0.00;99.90;;;;;;5061871;28;20029;-83
2023/03/28 05:56:21;;;;;;;4.50;2.05;;;0.00;99.90;;;;;;5056563;28;20028;-83
2023/03/28 05:58:47;;;;;;;8.45;2.28;;;0.00;99.90;;;;;;5062613;28;20035;-83
2023/03/28 06:01:16;;;;;;;5.65;2.00;;;0.00;99.90;;;;;;5061957;28;20090;-83
2023/03/28 06:03:44;;;;;;;3.60;2.00;;;0.00;99.90;;;;;;5060133;28;20047;-84
2023/03/28 06:06:10;;;;;;;3.90;2.10;;;0.10;99.90;;;;;;5077658;28;20205;-84
2023/03/28 06:08:36;;;;;;;3.03;1.67;;;0.10;99.90;;;;;;5063931;28;20021;-84
2023/03/28 06:11:03;;;;;;;3.75;1.80;;;0.10;99.90;;;;;;5077842;28;20040;-84
2023/03/28 06:13:29;;;;;;;6.60;3.35;;;0.20;99.90;;;;;;5062029;28;20039;-84
2023/03/28 06:15:55;;;;;;;4.78;2.28;;;0.20;99.90;;;;;;5055581;28;20506;-85
2023/03/28 06:18:21;;;;;;;5.50;1.83;;;0.20;99.90;;;;;;5063566;28;20029;-83
2023/03/28 06:20:46;;;;;;;4.38;2.10;;;0.30;99.90;;;;;;5061859;28;20025;-84
2023/03/28 06:23:12;;;;;;;5.45;2.25;;;0.40;99.90;;;;;;5063695;28;20086;-83
2023/03/28 06:25:37;;;;;;;4.70;2.35;;;0.40;99.90;;;;;;5056879;28;20039;-83
2023/03/28 06:28:03;;;;;;;4.22;2.05;;;0.50;99.90;;;;;;5061599;28;20024;-83
2023/03/28 06:30:28;;;;;;;4.13;1.90;;;0.60;99.90;;;;;;5055780;28;20047;-83
2023/03/28 06:32:54;;;;;;;4.63;2.00;;;0.60;99.90;;;;;;5063481;28;20048;-83
2023/03/28 06:35:20;;;;;;;4.53;1.65;;;0.60;99.90;;;;;;5056831;28;20151;-84
2023/03/28 06:37:45;;;;;;;6.28;1.88;;;0.70;99.90;;;;;;5057278;28;20107;-82
2023/03/28 06:40:11;;;;;;;6.70;2.13;;;0.80;99.90;;;;;;5061290;28;20028;-84
2023/03/28 06:42:36;;;;;;;3.63;1.67;;;0.90;99.90;;;;;;5055727;28;20044;-84
2023/03/28 06:45:02;;;;;;;4.15;1.52;;;0.90;99.90;;;;;;5064057;28;20033;-85
2023/03/28 06:47:28;;;;;;;7.10;2.28;;;0.90;99.90;;;;;;5063003;28;20108;-85
2023/03/28 06:49:54;;;;;;;5.80;2.33;;;1.10;99.90;;;;;;5056615;28;20442;-84
2023/03/28 06:52:21;;;;;;;3.67;1.85;;;1.10;99.90;;;;;;5056562;28;20078;-83
2023/03/28 06:54:47;;;;;;;4.93;2.15;;;1.20;99.90;;;;;;5064204;28;20028;-83
2023/03/28 06:57:13;;;;;;;3.22;2.00;;;1.30;99.90;;;;;;5060976;28;20113;-84
2023/03/28 06:59:39;;;;;;;5.95;2.20;;;1.40;99.90;;;;;;5055262;28;20032;-84
2023/03/28 07:02:05;;;;;;;3.13;1.90;;;1.60;99.90;;;;;;5055361;28;20016;-86
2023/03/28 07:04:33;;;;;;;4.88;2.17;;;1.70;99.90;;;;;;5061018;28;20048;-84
2023/03/28 07:06:59;;;;;;;8.80;2.55;;;1.80;99.90;;;;;;5057004;28;20541;-84
2023/03/28 07:09:25;;;;;;;4.53;2.42;;;2.00;99.90;;;;;;5061733;28;20500;-84
2023/03/28 07:11:51;;;;;;;6.95;2.55;;;2.20;99.90;;;;;;5056272;28;20051;-83
2023/03/28 07:14:18;;;;;;;6.57;2.90;;;2.30;99.90;;;;;;5069845;28;20135;-84
2023/03/28 07:16:44;;;;;;;4.95;2.83;;;2.50;99.90;;;;;;5063507;28;20789;-84
2023/03/28 07:19:09;;;;;;;4.32;2.40;;;2.60;99.90;;;;;;5068868;28;20036;-86
2023/03/28 07:21:35;;;;;;;7.28;3.05;;;2.70;99.90;;;;;;5069369;28;20025;-83
2023/03/28 07:24:01;;;;;;;6.57;2.75;;;2.80;99.90;;;;;;5066097;28;20085;-84
2023/03/28 07:26:27;;;;;;;4.15;2.50;;;2.90;99.90;;;;;;5067060;28;20102;-84
2023/03/28 07:28:53;;;;;;;4.88;2.35;;;2.90;99.90;;;;;;5068936;28;20032;-85
2023/03/28 07:31:20;;;;;;;4.25;2.70;;;3.00;99.90;;;;;;5069694;28;20051;-83
2023/03/28 07:33:48;;;;;;;4.00;2.20;;;3.00;99.90;;;;;;5066737;28;20024;-83
2023/03/28 07:36:16;;;;;;;5.25;2.08;;;3.00;99.90;;;;;;5068900;28;20032;-84
2023/03/28 07:38:42;;;;;;;6.63;2.88;;;3.00;99.90;;;;;;5065893;28;20036;-82
2023/03/28 07:41:08;;;;;;;9.07;3.33;;;3.00;99.90;;;;;;5068473;28;20559;-83
2023/03/28 07:43:34;;;;;;;6.10;2.70;;;3.00;99.90;;;;;;5061467;28;20035;-84
2023/03/28 07:46:05;;;;;;;7.78;2.72;;;3.00;99.90;;;;;;5073745;28;20024;-84
2023/03/28 07:48:31;;;;;;;8.95;3.65;;;3.00;99.90;;;;;;5071068;28;20032;-84
2023/03/28 07:50:58;;;;;;;6.45;3.20;;;3.10;99.90;;;;;;5059838;28;20562;-84
2023/03/28 07:53:24;;;;;;;5.93;2.88;;;3.10;99.90;;;;;;5066261;28;20056;-83
2023/03/28 07:55:50;;;;;;;7.05;3.47;;;3.20;99.90;;;;;;5065671;28;20028;-84
2023/03/28 07:58:16;;;;;;;6.88;3.28;;;3.30;99.90;;;;;;5066280;28;20028;-85
2023/03/28 08:00:44;;;;;;;6.85;3.58;;;3.40;99.90;;;;;;5081602;28;20036;-83
2023/03/28 08:03:10;;;;;;;5.63;2.90;;;3.50;99.90;;;;;;5064443;28;20060;-83
2023/03/28 08:05:36;;;;;;;6.38;3.05;;;3.70;99.90;;;;;;5082978;28;20106;-82
2023/03/28 08:08:02;;;;;;;6.82;2.67;;;3.80;99.90;;;;;;5066634;28;20574;-83
2023/03/28 08:10:28;;;;;;;8.50;3.20;;;3.90;99.90;;;;;;5063185;28;20044;-83
2023/03/28 08:12:54;;;;;;;6.00;3.13;;;4.10;99.90;;;;;;5068269;28;20021;-81
2023/03/28 08:15:19;;;;;;;5.80;3.30;;;4.20;99.90;;;;;;5067965;28;20051;-82
2023/03/28 08:17:45;;;;;;;6.25;3.00;;;4.40;99.90;;;;;;5070155;28;20062;-83
2023/03/28 08:20:11;;;;;;;8.40;3.97;;;4.60;99.90;;;;;;5073694;28;20143;-82
2023/03/28 08:22:37;;;;;;;9.45;4.15;;;4.80;99.90;;;;;;5073699;28;20064;-83
2023/03/28 08:25:03;;;;;;;7.90;3.47;;;4.90;99.90;;;;;;5067278;28;20111;-82
2023/03/28 08:27:28;;;;;;;10.15;3.50;;;5.00;99.90;;;;;;5069561;28;20040;-85
2023/03/28 08:29:54;;;;;;;10.07;4.50;;;5.10;99.90;;;;;;5070243;28;20041;-85
2023/03/28 08:32:20;;;;;;;9.13;4.10;;;5.20;99.90;;;;;;5073746;28;20088;-84
2023/03/28 08:34:45;;;;;;;10.27;4.68;;;5.40;99.90;;;;;;5068036;28;20104;-86
2023/03/28 08:37:11;;;;;;;10.77;3.90;;;5.50;99.90;;;;;;5068561;28;20375;-83
2023/03/28 08:39:40;;;;;;;7.75;4.30;;;5.70;99.90;;;;;;5072006;28;20197;-85
2023/03/28 08:42:37;;;;;;;8.60;3.80;;;5.90;99.90;;;;;;5067833;28;20028;-83
2023/03/28 08:45:18;;;;;;;10.18;4.30;;;6.20;99.90;;;;;;5057666;28;20105;-84
2023/03/28 08:48:21;;;;;;;10.70;4.50;;;6.50;99.90;;;;;;5064343;28;20123;-82
2023/03/28 08:51:01;;;;;;;7.60;3.70;;;6.70;99.90;;;;;;5066616;28;20039;-83
2023/03/28 08:54:13;;;;;;;7.30;3.10;;;6.70;99.90;;;;;;5065659;28;20048;-85
2023/03/28 08:56:45;;;;;;;10.35;3.33;;;6.80;99.90;;;;;;5039606;28;20123;-85
2023/03/28 08:59:14;;;;;;;7.47;3.38;;;6.80;99.90;;;;;;5065768;28;20596;-85
2023/03/28 09:01:40;;;;;;;8.70;3.15;;;6.80;99.90;;;;;;5065285;28;20041;-84
2023/03/28 09:04:06;;;;;;;7.78;3.72;;;6.80;99.90;;;;;;5064088;28;20047;-84
2023/03/28 09:06:38;;;;;;;7.60;2.83;;;6.80;99.90;;;;;;5064137;28;20494;-83
2023/03/28 09:09:13;;;;;;;8.23;2.95;;;6.90;99.90;;;;;;5064528;28;20057;-85
2023/03/28 09:11:44;;;;;;;5.97;2.50;;;6.90;99.90;;;;;;5063211;28;20036;-83
2023/03/28 09:14:32;;;;;;;7.65;3.15;;;6.90;99.90;;;;;;5064163;28;20418;-82
2023/03/28 09:17:15;;;;;;;8.30;2.92;;;7.00;99.90;;;;;;5056134;28;20040;-83
2023/03/28 09:19:53;;;;;;;6.38;2.60;;;7.10;99.90;;;;;;5058082;28;20020;-83
2023/03/28 09:22:44;;;;;;;6.15;2.30;;;7.20;99.90;;;;;;5057456;28;20078;-84
2023/03/28 09:25:36;;;;;;;8.07;2.75;;;7.40;99.90;;;;;;5057121;28;20550;-84
2023/03/28 09:28:33;;;;;;;6.05;2.42;;;7.40;99.90;;;;;;5059458;28;20028;-84
2023/03/28 09:30:59;;;;;;;7.18;2.45;;;7.60;99.90;;;;;;5064073;28;20047;-83
2023/03/28 09:33:39;;;;;;;5.15;2.35;;;7.70;99.90;;;;;;5056481;28;20020;-83
2023/03/28 09:36:33;;;;;;;7.40;2.58;;;8.00;99.90;;;;;;5064120;28;20059;-83
2023/03/28 09:39:26;;;;;;;7.47;2.42;;;8.00;99.90;;;;;;5053889;28;20060;-84
2023/03/28 09:41:59;;;;;;;5.75;2.30;;;8.00;99.90;;;;;;5062521;28;20025;-84
2023/03/28 09:44:30;;;;;;;6.68;2.72;;;8.20;99.90;;;;;;5064697;28;20353;-85
2023/03/28 09:46:57;;;;;;;6.53;2.83;;;8.30;99.90;;;;;;5069795;28;20021;-84
2023/03/28 09:49:24;;;;;;;4.55;2.10;;;8.50;99.90;;;;;;5058157;28;21922;-83
2023/03/28 09:51:53;;;;;;;5.90;1.90;;;9.00;99.90;;;;;;5062824;28;20032;-85
2023/03/28 09:54:33;;;;;;;6.72;2.08;;;9.40;99.90;;;;;;5061448;28;20109;-84
2023/03/28 09:57:01;;;;;;;5.75;2.10;;;9.70;99.90;;;;;;5064746;28;20035;-83
2023/03/28 09:59:30;;;;;;;6.25;2.17;;;9.70;99.90;;;;;;5057836;28;20363;-83
2023/03/28 10:01:57;;;;;;;5.88;1.80;;;9.50;99.90;;;;;;5060686;28;20059;-84
2023/03/28 10:04:29;;;;;;;6.93;1.90;;;9.40;99.90;;;;;;5056010;28;20040;-82
2023/03/28 10:07:15;;;;;;;3.95;1.60;;;9.30;99.90;;;;;;5063584;28;20921;-83
2023/03/28 10:09:48;;;;;;;5.45;1.85;;;9.20;99.90;;;;;;5080546;28;20610;-83
2023/03/28 10:12:30;;;;;;;7.38;2.30;;;9.20;99.90;;;;;;5058108;28;20035;-84
2023/03/28 10:14:56;;;;;;;7.22;2.20;;;9.40;99.90;;;;;;5078423;28;20016;-83
2023/03/28 10:17:30;;;;;;;5.82;1.92;;;9.50;99.90;;;;;;5063735;28;20040;-83
2023/03/28 10:20:22;;;;;;;5.00;1.85;;;9.80;99.90;;;;;;5062524;28;20029;-82
2023/03/28 10:22:50;;;;;;;7.05;2.10;;;10.20;99.90;;;;;;5052851;28;20161;-85
2023/03/28 10:25:20;;;;;;;6.00;2.10;;;10.20;99.90;;;;;;5063205;28;20374;-84
2023/03/28 10:27:47;;;;;;;4.57;1.70;;;10.00;99.90;;;;;;5063969;28;20078;-84
2023/03/28 10:30:12;;;;;;;6.18;2.80;;;10.00;99.90;;;;;;5056961;28;20070;-82
2023/03/28 10:32:40;;;;;;;7.03;2.38;;;10.00;99.90;;;;;;5063636;28;20518;-84
2023/03/28 10:35:19;;;;;;;5.00;2.08;;;10.00;99.90;;;;;;5060305;28;20024;-84
2023/03/28 10:37:53;;;;;;;5.40;2.10;;;10.20;99.90;;;;;;5056560;28;20474;-83
2023/03/28 10:40:19;;;;;;;7.20;1.90;;;10.40;99.90;;;;;;5078593;28;20056;-86
2023/03/28 10:42:48;;;;;;;5.20;2.05;;;10.70;99.90;;;;;;5062594;28;20051;-85
2023/03/28 10:45:37;;;;;;;6.60;2.03;;;10.90;99.90;;;;;;5058251;28;20094;-83
2023/03/28 10:48:11;;;;;;;3.75;1.65;;;11.00;99.90;;;;;;5062897;28;20020;-85
2023/03/28 10:50:52;;;;;;;7.18;1.92;;;11.10;99.90;;;;;;5060878;28;20037;-84
2023/03/28 10:53:20;;;;;;;4.90;1.90;;;11.00;99.90;;;;;;5063670;28;20441;-83
2023/03/28 10:56:09;;;;;;;6.85;1.90;;;10.90;99.90;;;;;;5062754;28;20028;-84
2023/03/28 10:58:46;;;;;;;3.97;1.48;;;10.60;99.90;;;;;;5063346;28;20032;-84
2023/03/28 11:01:18;;;;;;;4.60;1.50;;;10.50;99.90;;;;;;5057644;28;20040;-82
2023/03/28 11:04:05;;;;;;;8.50;1.90;;;10.60;99.90;;;;;;5058485;28;20048;-84
2023/03/28 11:06:42;;;;;;;8.10;2.08;;;10.50;99.90;;;;;;5060963;28;20033;-84
2023/03/28 11:09:48;;;;;;;6.53;2.00;;;10.30;99.90;;;;;;5061808;28;20020;-84
2023/03/28 11:12:35;;;;;;;5.70;2.13;;;10.00;99.90;;;;;;5063141;28;20056;-85
2023/03/28 11:15:10;;;;;;;4.22;1.45;;;9.80;99.90;;;;;;5063304;28;20509;-84
2023/03/28 11:17:59;;;;;;;2.50;1.40;;;9.70;99.90;;;;;;5063162;28;20072;-84
2023/03/28 11:20:27;;;;;;;3.80;1.70;;;9.70;99.90;;;;;;5062698;28;20485;-83
2023/03/28 11:23:03;;;;;;;6.35;2.10;;;9.70;99.90;;;;;;5060077;28;20024;-82
2023/03/28 11:25:42;;;;;;;4.20;1.52;;;9.70;99.90;;;;;;5078075;28;20032;-84
2023/03/28 11:28:35;;;;;;;5.32;1.25;;;9.70;99.90;;;;;;5061574;28;20144;-84
2023/03/28 11:31:02;;;;;;;7.57;2.08;;;9.60;99.90;;;;;;5061683;28;20164;-83
2023/03/28 11:33:47;;;;;;;8.70;2.70;;;9.60;99.90;;;;;;5061501;28;20021;-85
2023/03/28 11:36:38;;;;;;;7.70;2.35;;;9.50;99.90;;;;;;5060707;28;20048;-83
2023/03/28 11:39:14;;;;;;;7.35;2.45;;;9.70;99.90;;;;;;5041938;28;20127;-85
2023/03/28 11:41:42;;;;;;;5.05;1.20;;;10.30;99.90;;;;;;5063248;28;20111;-84
2023/03/28 11:44:28;;;;;;;4.22;1.38;;;11.20;99.90;;;;;;5062503;28;20028;-85
2023/03/28 11:47:09;;;;;;;4.43;1.40;;;12.00;99.90;;;;;;5055405;28;20036;-84
2023/03/28 11:49:40;;;;;;;8.88;1.85;;;12.50;99.90;;;;;;5062968;28;20075;-84
2023/03/28 11:52:27;;;;;;;5.43;1.90;;;12.70;99.90;;;;;;5078715;28;20029;-84
2023/03/28 11:55:14;;;;;;;5.00;1.25;;;12.80;99.90;;;;;;5063541;28;20415;-85
2023/03/28 11:57:55;;;;;;;5.57;1.50;;;12.70;99.90;;;;;;5061010;28;20143;-85
2023/03/28 12:00:30;;;;;;;2.15;1.05;;;12.40;99.90;;;;;;5056211;28;20024;-84
2023/03/28 12:03:37;;;;;;;6.53;1.35;;;12.30;99.90;;;;;;5067285;28;20115;-84
2023/03/28 12:06:09;;;;;;;4.40;1.88;;;12.30;99.90;;;;;;5066804;28;20125;-84
2023/03/28 12:08:40;;;;;;;4.13;1.63;;;12.00;99.90;;;;;;5060021;28;20025;-85
2023/03/28 12:11:13;;;;;;;2.05;1.13;;;11.60;99.90;;;;;;5062958;28;20129;-82
2023/03/28 12:13:52;;;;;;;5.20;1.60;;;11.70;99.90;;;;;;5061002;28;20017;-84
2023/03/28 12:16:22;;;;;;;8.20;2.15;;;11.70;99.90;;;;;;5064782;28;20101;-86
2023/03/28 12:18:57;;;;;;;6.00;2.15;;;11.80;99.90;;;;;;5060499;28;20025;-84
2023/03/28 12:21:42;;;;;;;6.78;2.42;;;11.90;99.90;;;;;;5066017;28;20020;-84
2023/03/28 12:24:26;;;;;;;6.32;1.70;;;12.00;99.90;;;;;;5066361;28;20056;-84
2023/03/28 12:26:52;;;;;;;5.55;1.88;;;12.20;99.90;;;;;;5066601;28;20020;-84
2023/03/28 12:29:36;;;;;;;5.35;2.13;;;12.30;99.90;;;;;;5081425;28;20044;-84
2023/03/28 12:32:36;;;;;;;4.50;1.85;;;12.50;99.90;;;;;;5066790;28;20047;-85
2023/03/28 12:35:17;;;;;;;6.50;1.70;;;12.60;99.90;;;;;;5064942;28;20418;-85
2023/03/28 12:37:57;;;;;;;6.05;2.10;;;12.70;99.90;;;;;;5064501;28;20484;-83
2023/03/28 12:40:47;;;;;;;5.05;2.05;;;12.60;99.90;;;;;;5064797;28;20032;-83
2023/03/28 12:43:16;;;;;;;4.47;1.80;;;12.60;99.90;;;;;;5059480;28;20040;-84
2023/03/28 12:45:46;;;;;;;7.78;2.20;;;12.50;99.90;;;;;;5065883;28;20032;-85
2023/03/28 12:48:28;;;;;;;5.40;1.90;;;12.30;99.90;;;;;;5065250;28;20078;-84
2023/03/28 12:51:06;;;;;;;7.07;1.70;;;12.10;99.90;;;;;;5065295;28;22243;-84
2023/03/28 12:53:32;;;;;;;4.03;1.85;;;11.80;99.90;;;;;;5064089;28;20528;-83
2023/03/28 12:56:00;;;;;;;7.85;2.28;;;11.60;99.90;;;;;;5064269;28;20039;-84
2023/03/28 12:58:35;;;;;;;5.40;2.13;;;11.40;99.90;;;;;;5065175;28;20028;-83
2023/03/28 13:01:07;;;;;;;7.78;2.08;;;11.30;99.90;;;;;;5080624;28;20029;-84
2023/03/28 13:03:56;;;;;;;6.35;1.77;;;11.20;99.90;;;;;;5062813;28;20513;-83
2023/03/28 13:06:52;;;;;;;3.55;1.80;;;11.30;99.90;;;;;;5065146;28;20081;-84
2023/03/28 13:09:39;;;;;;;4.57;1.77;;;11.40;99.90;;;;;;5065279;28;20020;-85
2023/03/28 13:12:29;;;;;;;4.65;1.65;;;11.60;99.90;;;;;;5064313;28;20521;-83
2023/03/28 13:14:59;;;;;;;6.72;1.95;;;11.80;99.90;;;;;;5063966;28;20048;-82
2023/03/28 13:17:28;;;;;;;6.05;2.30;;;12.40;99.90;;;;;;5063593;28;20029;-83
2023/03/28 13:20:09;;;;;;;4.50;1.90;;;12.70;99.90;;;;;;5064220;28;20466;-85
2023/03/28 13:22:39;;;;;;;6.88;1.80;;;12.60;99.90;;;;;;5058333;28;20025;-84